Time;durP1;ratioP1;P1;durP2;ratioP2;P2;SDS_P1;SDS_P2;PMS_P1;PMS_P2;Temp;Humidity;BMP_temperature;BMP_pressure;BME280_temperature;BME280_humidity;BME280_pressure;Samples;Min_cycle;Max_cycle;Signal;HPM_P1;HPM_P2
2022/04/30 00:02:19;;;;;;;9.98;6.93;;;11.10;99.90;;;;;;4967226;28;20034;-71
2022/04/30 00:04:46;;;;;;;13.98;7.50;;;11.10;99.90;;;;;;4975303;28;20034;-71
2022/04/30 00:07:17;;;;;;;8.80;7.05;;;11.10;99.90;;;;;;4965403;28;20034;-71
2022/04/30 00:09:44;;;;;;;11.50;7.53;;;11.10;99.90;;;;;;4968138;28;20019;-71
2022/04/30 00:12:09;;;;;;;13.82;7.25;;;11.00;99.90;;;;;;4966330;28;20128;-71
2022/04/30 00:14:36;;;;;;;11.32;7.28;;;11.10;99.90;;;;;;4965591;28;20471;-71
2022/04/30 00:17:02;;;;;;;10.70;7.38;;;11.00;99.90;;;;;;4970963;28;20114;-71
2022/04/30 00:19:29;;;;;;;12.20;7.43;;;11.00;99.90;;;;;;4965247;28;20026;-71
2022/04/30 00:21:55;;;;;;;12.40;7.07;;;11.00;99.90;;;;;;4965759;28;20034;-71
2022/04/30 00:24:22;;;;;;;10.88;7.35;;;11.00;99.90;;;;;;4965534;28;20471;-71
2022/04/30 00:26:48;;;;;;;10.13;6.22;;;11.00;99.90;;;;;;4965503;28;20027;-72
2022/04/30 00:29:14;;;;;;;13.73;6.85;;;11.00;99.90;;;;;;4963659;28;20038;-72
2022/04/30 00:31:40;;;;;;;9.18;7.20;;;11.00;99.90;;;;;;4965576;28;20027;-71
2022/04/30 00:34:14;;;;;;;10.70;6.93;;;10.90;99.90;;;;;;4962716;28;20043;-72
2022/04/30 00:36:39;;;;;;;11.73;7.57;;;10.90;99.90;;;;;;4966220;28;20031;-71
2022/04/30 00:39:05;;;;;;;13.90;7.55;;;10.90;99.90;;;;;;4975167;28;20048;-72
2022/04/30 00:41:32;;;;;;;14.80;8.27;;;10.90;99.90;;;;;;4966873;28;20110;-71
2022/04/30 00:43:58;;;;;;;14.13;7.88;;;10.90;99.90;;;;;;4967372;28;20091;-71
2022/04/30 00:46:24;;;;;;;11.95;7.65;;;10.80;99.90;;;;;;4963564;28;20383;-71
2022/04/30 00:48:51;;;;;;;11.65;8.43;;;10.80;99.90;;;;;;4979985;28;20428;-71
2022/04/30 00:51:19;;;;;;;13.65;8.18;;;10.80;99.90;;;;;;4966037;28;20035;-71
2022/04/30 00:53:47;;;;;;;12.63;8.40;;;10.70;99.90;;;;;;4965084;28;20026;-71
2022/04/30 00:56:14;;;;;;;10.90;7.65;;;10.70;99.90;;;;;;4963577;28;20035;-71
2022/04/30 00:58:53;;;;;;;12.00;7.88;;;10.70;99.90;;;;;;4962711;28;20474;-70
2022/04/30 01:01:26;;;;;;;10.38;7.82;;;10.60;99.90;;;;;;4963511;28;20125;-71
2022/04/30 01:03:52;;;;;;;16.17;8.93;;;10.60;99.90;;;;;;4968739;28;20030;-72
2022/04/30 01:06:27;;;;;;;12.00;7.72;;;10.60;99.90;;;;;;4969643;28;20023;-71
2022/04/30 01:08:52;;;;;;;12.88;8.13;;;10.60;99.90;;;;;;4965281;28;20044;-71
2022/04/30 01:11:18;;;;;;;12.07;8.20;;;10.50;99.90;;;;;;4967967;28;20023;-70
2022/04/30 01:13:44;;;;;;;13.52;8.13;;;10.50;99.90;;;;;;4967925;28;20035;-70
2022/04/30 01:16:12;;;;;;;11.85;8.65;;;10.50;99.90;;;;;;4966319;28;20041;-71
2022/04/30 01:18:38;;;;;;;11.85;7.60;;;10.50;99.90;;;;;;4967111;28;20102;-72
2022/04/30 01:21:12;;;;;;;11.75;8.23;;;10.50;99.90;;;;;;4963782;28;20121;-71
2022/04/30 01:23:42;;;;;;;16.27;8.27;;;10.50;99.90;;;;;;4961944;28;20031;-72
2022/04/30 01:26:17;;;;;;;13.77;8.73;;;10.40;99.90;;;;;;4965591;28;20027;-71
2022/04/30 01:28:44;;;;;;;13.00;8.10;;;10.40;99.90;;;;;;4968361;28;20383;-71
2022/04/30 01:39:30;;;;;;;13.43;8.15;;;10.30;99.90;;;;;;4966630;28;20046;-71
2022/04/30 01:42:03;;;;;;;15.48;8.38;;;10.20;99.90;;;;;;4965376;28;20102;-72
2022/04/30 01:44:29;;;;;;;;;;;10.20;99.90;;;;;;4963752;28;20523;-69
2022/04/30 01:46:55;;;;;;;13.27;8.00;;;10.20;99.90;;;;;;4982469;28;20013;-72
2022/04/30 01:49:20;;;;;;;12.73;7.53;;;10.10;99.90;;;;;;4962926;28;20076;-71
2022/04/30 01:51:50;;;;;;;12.27;7.68;;;10.00;99.90;;;;;;4967618;28;20379;-71
2022/04/30 01:54:16;;;;;;;10.50;7.20;;;10.00;99.90;;;;;;4964142;28;20376;-71
2022/04/30 01:56:42;;;;;;;11.85;7.95;;;10.10;99.90;;;;;;4962182;28;20038;-71
2022/04/30 01:59:07;;;;;;;11.65;7.50;;;10.10;99.90;;;;;;4964406;28;20027;-72
2022/04/30 02:01:37;;;;;;;13.05;7.43;;;10.00;99.90;;;;;;4963363;28;20076;-71
2022/04/30 02:04:10;;;;;;;12.55;6.78;;;10.00;99.90;;;;;;4961345;28;20027;-71
2022/04/30 02:06:39;;;;;;;11.40;7.82;;;9.90;99.90;;;;;;4964396;28;20114;-71
2022/04/30 02:09:05;;;;;;;10.30;7.15;;;9.90;99.90;;;;;;4966228;28;20023;-71
2022/04/30 02:11:30;;;;;;;11.65;7.25;;;9.80;99.90;;;;;;4965213;28;20364;-71
2022/04/30 02:13:58;;;;;;;10.10;7.90;;;9.80;99.90;;;;;;4967554;28;20483;-71
2022/04/30 02:16:25;;;;;;;12.05;7.38;;;9.80;99.90;;;;;;4965152;28;20026;-71
2022/04/30 02:18:51;;;;;;;12.27;6.97;;;9.80;99.90;;;;;;4969002;28;20022;-70
2022/04/30 02:21:20;;;;;;;11.55;7.28;;;9.80;99.90;;;;;;4961408;28;20031;-71
2022/04/30 02:23:50;;;;;;;10.15;7.20;;;9.80;99.90;;;;;;4963892;28;20059;-71
2022/04/30 02:26:16;;;;;;;9.27;7.40;;;9.80;99.90;;;;;;4964577;28;20039;-71
2022/04/30 02:28:42;;;;;;;9.43;5.93;;;9.80;99.90;;;;;;4965099;28;20038;-71
2022/04/30 02:31:19;;;;;;;11.07;7.47;;;9.80;99.90;;;;;;4966287;28;20034;-70
2022/04/30 02:33:46;;;;;;;10.85;6.75;;;9.70;99.90;;;;;;4965899;28;20585;-71
2022/04/30 02:36:13;;;;;;;12.23;7.15;;;9.80;99.90;;;;;;4966146;28;20043;-72
2022/04/30 02:38:38;;;;;;;9.52;7.45;;;9.70;99.90;;;;;;4966456;28;20059;-71
2022/04/30 02:41:04;;;;;;;10.82;6.53;;;9.80;99.90;;;;;;4966436;28;20556;-71
2022/04/30 02:43:30;;;;;;;12.13;6.20;;;9.80;99.90;;;;;;4965849;28;20039;-71
2022/04/30 02:45:56;;;;;;;12.80;6.85;;;9.80;99.90;;;;;;4965238;28;20107;-71
2022/04/30 02:48:22;;;;;;;12.55;6.80;;;9.70;99.90;;;;;;4961483;28;20069;-70
2022/04/30 02:50:48;;;;;;;14.93;7.38;;;9.70;99.90;;;;;;4965464;28;20102;-71
2022/04/30 02:53:14;;;;;;;8.95;6.57;;;9.60;99.90;;;;;;4967108;28;20096;-71
2022/04/30 02:55:41;;;;;;;10.05;6.55;;;9.60;99.90;;;;;;4967979;28;20785;-71
2022/04/30 03:00:51;;;;;;;11.30;6.50;;;9.60;99.90;;;;;;4966058;28;20165;-71
2022/04/30 03:03:18;;;;;;;11.07;6.93;;;9.60;99.90;;;;;;4968378;28;20034;-71
2022/04/30 03:05:48;;;;;;;12.20;6.55;;;9.50;99.90;;;;;;4967746;28;20027;-71
2022/04/30 03:08:22;;;;;;;9.35;6.55;;;9.50;99.90;;;;;;4966454;28;20510;-71
2022/04/30 03:10:49;;;;;;;9.40;6.03;;;9.50;99.90;;;;;;4968268;28;20027;-71
2022/04/30 03:13:17;;;;;;;8.48;5.93;;;9.40;99.90;;;;;;4962271;28;20084;-71
2022/04/30 03:15:44;;;;;;;14.35;7.13;;;9.40;99.90;;;;;;4965206;28;20038;-71
2022/04/30 03:23:42;;;;;;;13.15;6.93;;;9.40;99.90;;;;;;4964099;28;20399;-71
2022/04/30 03:26:09;;;;;;;8.15;6.75;;;9.40;99.90;;;;;;4967072;28;20028;-71
2022/04/30 03:28:40;;;;;;;12.18;6.55;;;9.30;99.90;;;;;;4961172;28;20031;-71
2022/04/30 03:31:08;;;;;;;9.35;6.60;;;9.20;99.90;;;;;;4964422;28;20062;-70
2022/04/30 03:33:34;;;;;;;12.13;6.85;;;9.20;99.90;;;;;;4963774;28;20410;-71
2022/04/30 03:36:00;;;;;;;11.40;7.28;;;9.30;99.90;;;;;;4963675;28;20031;-71
2022/04/30 03:38:26;;;;;;;14.40;6.38;;;9.30;99.90;;;;;;4963972;28;20442;-71
2022/04/30 03:40:51;;;;;;;14.55;7.15;;;9.20;99.90;;;;;;4965206;28;20039;-71
2022/04/30 03:43:18;;;;;;;11.25;6.85;;;9.20;99.90;;;;;;4962297;28;20076;-71
2022/04/30 03:45:44;;;;;;;10.48;7.15;;;9.20;99.90;;;;;;4957933;28;20023;-70
2022/04/30 03:48:10;;;;;;;14.02;6.88;;;9.20;99.90;;;;;;4962091;28;20027;-71
2022/04/30 03:50:36;;;;;;;16.90;7.47;;;9.20;99.90;;;;;;4966234;28;20031;-71
2022/04/30 03:53:01;;;;;;;14.07;8.25;;;9.20;99.90;;;;;;4964620;28;20077;-71
2022/04/30 03:55:27;;;;;;;13.73;7.45;;;9.20;99.90;;;;;;4963519;28;20042;-70
2022/04/30 03:58:03;;;;;;;;;;;;;;;;;;;;;
2022/04/30 04:00:29;;;;;;;12.07;7.20;;;9.10;99.90;;;;;;4966392;28;20410;-71
2022/04/30 04:02:56;;;;;;;14.10;8.10;;;9.10;99.90;;;;;;4962789;28;20037;-71
2022/04/30 04:05:22;;;;;;;11.90;7.65;;;9.00;99.90;;;;;;4962253;28;21006;-71
2022/04/30 04:07:48;;;;;;;14.43;7.80;;;9.00;99.90;;;;;;4969057;28;20015;-71
2022/04/30 04:10:13;;;;;;;19.45;8.20;;;9.00;99.90;;;;;;4968655;28;20424;-71
2022/04/30 04:12:40;;;;;;;13.57;8.38;;;9.00;99.90;;;;;;4961495;28;20043;-71
2022/04/30 04:17:52;;;;;;;13.18;7.63;;;8.90;99.90;;;;;;4967584;28;20506;-70
2022/04/30 04:20:18;;;;;;;16.15;8.05;;;9.00;99.90;;;;;;4967496;28;20027;-71
2022/04/30 04:22:45;;;;;;;11.07;7.43;;;9.00;99.90;;;;;;4970180;28;20079;-71
2022/04/30 04:27:58;;;;;;;15.68;8.27;;;8.90;99.90;;;;;;4968685;28;20556;-70
2022/04/30 04:30:28;;;;;;;16.63;8.13;;;8.90;99.90;;;;;;4964641;28;20164;-70
2022/04/30 04:32:57;;;;;;;15.30;8.48;;;8.90;99.90;;;;;;4965953;28;20038;-70
2022/04/30 04:35:24;;;;;;;17.17;8.88;;;8.90;99.90;;;;;;4964479;28;20043;-71
2022/04/30 04:37:50;;;;;;;15.32;8.60;;;8.90;99.90;;;;;;4972453;28;20031;-71
2022/04/30 04:40:17;;;;;;;17.00;8.48;;;8.90;99.90;;;;;;4965913;28;20499;-71
2022/04/30 04:42:43;;;;;;;17.83;8.48;;;8.90;99.90;;;;;;4968342;28;20450;-72
2022/04/30 04:45:10;;;;;;;14.50;8.15;;;8.90;99.90;;;;;;4966282;28;20654;-70
2022/04/30 04:47:40;;;;;;;15.52;9.10;;;8.90;99.90;;;;;;4968473;28;20039;-71
2022/04/30 04:50:12;;;;;;;15.88;8.43;;;8.90;99.90;;;;;;4966491;28;20046;-71
2022/04/30 04:52:38;;;;;;;20.55;9.20;;;8.90;99.90;;;;;;4970079;28;20035;-72
2022/04/30 04:55:04;;;;;;;16.05;9.48;;;9.00;99.90;;;;;;4967910;28;20031;-70
2022/04/30 04:57:30;;;;;;;17.90;9.38;;;9.00;99.90;;;;;;4966034;28;20047;-70
2022/04/30 04:59:56;;;;;;;15.57;8.98;;;9.00;99.90;;;;;;4967291;28;20029;-69
2022/04/30 05:02:22;;;;;;;18.30;9.27;;;9.10;99.90;;;;;;4967804;28;20109;-71
2022/04/30 05:04:48;;;;;;;22.40;10.70;;;9.10;99.90;;;;;;4963115;28;20106;-71
2022/04/30 05:07:14;;;;;;;18.20;10.18;;;9.10;99.90;;;;;;4960303;28;20046;-71
2022/04/30 05:09:40;;;;;;;18.25;9.88;;;9.20;99.90;;;;;;4963829;28;20117;-70
2022/04/30 05:12:07;;;;;;;19.15;9.93;;;9.20;99.90;;;;;;4966577;28;20035;-70
2022/04/30 05:14:33;;;;;;;16.73;9.57;;;9.20;99.90;;;;;;4963368;28;20040;-70
2022/04/30 05:16:59;;;;;;;15.48;9.30;;;9.20;99.90;;;;;;4966236;28;20027;-71
2022/04/30 05:19:25;;;;;;;14.85;10.10;;;9.20;99.90;;;;;;4967684;28;20027;-71
2022/04/30 05:21:51;;;;;;;21.38;10.13;;;9.20;99.90;;;;;;4967107;28;20467;-71
2022/04/30 05:24:16;;;;;;;18.92;9.80;;;9.20;99.90;;;;;;4968541;28;20088;-70
2022/04/30 05:26:42;;;;;;;19.33;10.00;;;9.30;99.90;;;;;;4965842;28;20027;-71
2022/04/30 05:29:07;;;;;;;16.17;10.05;;;9.30;99.90;;;;;;4968651;28;20037;-71
2022/04/30 05:31:33;;;;;;;20.33;10.85;;;9.30;99.90;;;;;;4969081;28;20039;-71
2022/04/30 05:33:59;;;;;;;20.48;10.88;;;9.30;99.90;;;;;;4964137;28;20031;-71
2022/04/30 05:36:25;;;;;;;20.48;10.10;;;9.30;99.90;;;;;;4977748;28;20027;-71
2022/04/30 05:38:51;;;;;;;17.30;9.93;;;9.40;99.90;;;;;;4965391;28;20379;-71
2022/04/30 05:41:17;;;;;;;18.73;8.93;;;9.40;99.90;;;;;;4963569;28;20466;-71
2022/04/30 05:43:43;;;;;;;18.08;10.65;;;9.40;99.90;;;;;;4965769;28;20023;-70
2022/04/30 05:46:08;;;;;;;17.83;10.05;;;9.30;99.90;;;;;;4965284;28;20083;-71
2022/04/30 05:48:34;;;;;;;15.35;9.18;;;9.30;99.90;;;;;;4964512;28;20107;-71
2022/04/30 05:51:02;;;;;;;16.10;8.90;;;9.40;99.90;;;;;;4961810;28;20039;-71
2022/04/30 05:53:27;;;;;;;18.35;10.63;;;9.40;99.90;;;;;;4968566;28;20479;-71
2022/04/30 05:55:53;;;;;;;15.43;9.93;;;9.40;99.90;;;;;;4968373;28;20050;-71
2022/04/30 05:58:19;;;;;;;17.77;10.80;;;9.40;99.90;;;;;;4966030;28;20023;-70
2022/04/30 06:00:44;;;;;;;18.40;10.65;;;9.40;99.90;;;;;;4966122;28;20031;-71
2022/04/30 06:03:10;;;;;;;18.00;11.55;;;9.40;99.90;;;;;;4966206;28;20506;-71
2022/04/30 06:05:37;;;;;;;18.35;11.55;;;9.40;99.90;;;;;;4965881;28;20035;-71
2022/04/30 06:08:06;;;;;;;16.52;10.02;;;9.50;99.90;;;;;;4969734;28;20028;-71
2022/04/30 06:10:32;;;;;;;16.85;10.40;;;9.50;99.90;;;;;;4964806;28;20042;-71
2022/04/30 06:12:59;;;;;;;16.63;9.90;;;9.60;99.90;;;;;;4968761;28;20035;-71
2022/04/30 06:15:25;;;;;;;15.43;9.85;;;9.60;99.90;;;;;;4964199;28;20031;-71
2022/04/30 06:17:51;;;;;;;19.02;11.40;;;9.60;99.90;;;;;;4965049;28;20066;-71
2022/04/30 06:20:16;;;;;;;21.13;12.02;;;9.60;99.90;;;;;;4963441;28;20115;-71
2022/04/30 06:22:42;;;;;;;17.67;11.10;;;9.60;99.90;;;;;;4966383;28;20015;-70
2022/04/30 06:25:08;;;;;;;21.05;11.73;;;9.70;99.90;;;;;;4962588;28;20023;-71
2022/04/30 06:27:34;;;;;;;20.48;11.18;;;9.70;99.90;;;;;;4964457;28;20019;-70
2022/04/30 06:30:00;;;;;;;20.90;11.18;;;9.80;99.90;;;;;;4965228;28;20705;-70
2022/04/30 06:32:27;;;;;;;14.13;9.48;;;9.80;99.90;;;;;;4963176;28;20034;-70
2022/04/30 06:34:52;;;;;;;18.45;10.75;;;9.80;99.90;;;;;;4969147;28;20096;-70
2022/04/30 06:37:18;;;;;;;17.60;10.30;;;9.80;99.90;;;;;;4968005;28;20434;-71
2022/04/30 06:39:45;;;;;;;15.77;9.55;;;9.80;99.90;;;;;;4967283;28;20027;-71
2022/04/30 06:42:11;;;;;;;18.02;9.68;;;9.90;99.90;;;;;;4969380;28;20110;-69
2022/04/30 06:44:36;;;;;;;15.32;9.30;;;9.90;99.90;;;;;;4963795;28;20053;-70
2022/04/30 06:47:02;;;;;;;19.90;8.82;;;9.90;99.90;;;;;;4963471;28;20032;-71
2022/04/30 06:49:28;;;;;;;13.90;9.10;;;10.00;99.90;;;;;;4964923;28;20106;-71
2022/04/30 06:51:53;;;;;;;13.43;7.90;;;10.00;99.90;;;;;;4967225;28;20043;-71
2022/04/30 06:57:20;;;;;;;15.65;8.77;;;10.10;99.90;;;;;;4961961;28;20042;-70
2022/04/30 06:59:45;;;;;;;15.98;8.75;;;10.20;99.90;;;;;;4964929;28;20741;-72
2022/04/30 07:02:21;;;;;;;15.88;7.90;;;10.40;99.90;;;;;;4968212;28;20035;-70
2022/04/30 07:04:50;;;;;;;11.05;6.50;;;10.30;99.90;;;;;;4961878;28;20050;-71
2022/04/30 07:07:17;;;;;;;10.77;6.07;;;10.40;99.90;;;;;;4965450;28;20031;-70
2022/04/30 07:09:43;;;;;;;9.93;6.25;;;10.30;99.90;;;;;;4966785;28;20492;-71
2022/04/30 07:12:11;;;;;;;9.20;5.72;;;10.50;99.90;;;;;;4968062;28;20403;-71
2022/04/30 07:14:40;;;;;;;10.35;6.13;;;10.70;99.90;;;;;;4964672;28;20511;-71
2022/04/30 07:17:06;;;;;;;8.07;5.72;;;10.90;99.90;;;;;;4965212;28;20030;-70
2022/04/30 07:19:33;;;;;;;10.82;6.13;;;11.00;99.90;;;;;;4965681;28;20019;-72
2022/04/30 07:22:00;;;;;;;8.57;5.95;;;11.10;99.90;;;;;;4966177;28;20561;-72
2022/04/30 07:24:27;;;;;;;8.77;5.18;;;11.20;99.90;;;;;;4966994;28;20058;-74
2022/04/30 07:26:53;;;;;;;9.98;5.45;;;11.40;99.90;;;;;;4967700;28;20040;-73
2022/04/30 07:29:19;;;;;;;9.80;5.40;;;11.50;99.90;;;;;;4964881;28;20034;-75
2022/04/30 07:31:44;;;;;;;9.40;5.35;;;11.60;99.90;;;;;;4965195;28;20023;-74
2022/04/30 07:34:10;;;;;;;11.05;5.78;;;11.60;99.90;;;;;;4962740;28;20031;-74
2022/04/30 07:36:37;;;;;;;8.27;5.45;;;11.60;99.90;;;;;;4961371;28;20030;-74
2022/04/30 07:39:03;;;;;;;11.50;5.60;;;11.80;99.90;;;;;;4962400;28;20698;-75
2022/04/30 07:41:29;;;;;;;10.40;5.80;;;11.80;99.90;;;;;;4966845;28;20034;-76
2022/04/30 07:43:55;;;;;;;9.98;5.53;;;12.10;99.90;;;;;;4970536;28;20665;-74
2022/04/30 07:46:22;;;;;;;11.60;5.47;;;12.20;99.90;;;;;;4965744;28;20045;-72
2022/04/30 07:48:48;;;;;;;8.18;4.32;;;12.30;99.90;;;;;;4963033;28;20548;-72
2022/04/30 07:51:18;;;;;;;8.82;5.30;;;12.50;99.90;;;;;;4971351;28;20092;-72
2022/04/30 07:53:45;;;;;;;9.10;5.10;;;12.60;99.90;;;;;;4969177;28;20111;-72
2022/04/30 07:56:11;;;;;;;8.55;4.65;;;12.70;99.90;;;;;;4966588;28;20549;-71
2022/04/30 07:58:37;;;;;;;11.07;4.80;;;12.90;99.90;;;;;;4968816;28;20062;-72
2022/04/30 08:01:02;;;;;;;6.78;4.65;;;13.00;99.90;;;;;;4968060;28;20056;-72
2022/04/30 08:03:28;;;;;;;6.93;4.30;;;12.90;99.90;;;;;;4969241;28;20023;-72
2022/04/30 08:05:54;;;;;;;7.18;3.67;;;13.20;99.90;;;;;;4970641;28;20031;-71
2022/04/30 08:08:19;;;;;;;4.82;3.85;;;13.40;99.90;;;;;;4963952;28;20035;-70
2022/04/30 08:10:45;;;;;;;5.00;3.53;;;13.60;99.90;;;;;;4966467;28;20034;-71
2022/04/30 08:13:11;;;;;;;4.70;3.88;;;13.70;99.90;;;;;;4968315;28;20456;-71
2022/04/30 08:15:43;;;;;;;8.10;3.42;;;14.00;99.20;;;;;;4963366;28;20126;-71
2022/04/30 08:18:10;;;;;;;3.30;3.00;;;14.20;98.60;;;;;;4965842;28;20031;-71
2022/04/30 08:20:37;;;;;;;6.72;3.88;;;14.20;98.30;;;;;;4967708;28;20637;-71
2022/04/30 08:23:06;;;;;;;7.07;3.83;;;14.30;98.60;;;;;;4967092;28;20119;-72
2022/04/30 08:25:32;;;;;;;7.88;3.50;;;14.40;97.30;;;;;;4965049;28;20058;-70
2022/04/30 08:27:57;;;;;;;4.93;3.22;;;14.40;96.60;;;;;;4967969;28;20059;-71
2022/04/30 08:30:23;;;;;;;3.92;2.75;;;14.50;96.80;;;;;;4969190;28;20128;-69
2022/04/30 08:32:49;;;;;;;8.45;3.47;;;14.70;96.40;;;;;;4969715;28;20023;-69
2022/04/30 08:35:14;;;;;;;4.68;2.97;;;14.70;96.40;;;;;;4971655;28;20100;-69
2022/04/30 08:37:40;;;;;;;5.35;2.88;;;14.80;95.70;;;;;;4967826;28;20053;-72
2022/04/30 08:40:06;;;;;;;5.05;3.15;;;14.80;97.10;;;;;;4969350;28;20049;-73
2022/04/30 08:42:32;;;;;;;3.50;3.17;;;14.70;96.20;;;;;;4966701;28;20062;-72
2022/04/30 08:45:02;;;;;;;5.70;3.00;;;14.70;94.60;;;;;;4965121;28;20167;-71
2022/04/30 08:47:29;;;;;;;4.32;2.95;;;14.70;94.90;;;;;;4970887;28;20023;-72
2022/04/30 08:49:57;;;;;;;5.43;2.97;;;14.70;95.60;;;;;;4968822;28;20026;-71
2022/04/30 08:52:22;;;;;;;5.93;3.45;;;14.70;94.90;;;;;;4966907;28;20028;-71
2022/04/30 08:54:48;;;;;;;7.35;3.38;;;14.60;95.80;;;;;;4968531;28;20124;-72
2022/04/30 08:57:15;;;;;;;4.30;2.92;;;14.60;94.00;;;;;;4966860;28;20038;-70
2022/04/30 08:59:41;;;;;;;3.20;2.90;;;14.50;93.90;;;;;;4968103;28;20042;-71
2022/04/30 09:02:11;;;;;;;4.50;3.80;;;14.30;95.10;;;;;;4969777;28;20038;-71
2022/04/30 09:04:42;;;;;;;3.88;2.97;;;14.60;96.30;;;;;;4945090;28;20782;-72
2022/04/30 09:07:13;;;;;;;3.80;3.00;;;14.80;94.70;;;;;;4956111;28;20047;-71
2022/04/30 09:09:39;;;;;;;8.07;3.90;;;15.10;93.90;;;;;;4960262;28;20494;-72
2022/04/30 09:12:09;;;;;;;5.78;3.22;;;15.40;93.20;;;;;;4960321;28;20023;-72
2022/04/30 09:14:37;;;;;;;6.57;3.65;;;15.60;93.60;;;;;;4965493;28;20043;-71
2022/04/30 09:17:05;;;;;;;6.60;3.83;;;15.80;93.00;;;;;;4963739;28;20100;-72
2022/04/30 09:19:51;;;;;;;9.00;4.65;;;15.80;93.70;;;;;;4964298;28;20050;-72
2022/04/30 09:22:30;;;;;;;5.88;4.47;;;15.90;94.20;;;;;;4958234;28;20126;-71
2022/04/30 09:24:56;;;;;;;4.20;3.13;;;16.20;92.90;;;;;;4959208;28;20027;-72
2022/04/30 09:27:23;;;;;;;4.90;2.88;;;16.10;93.20;;;;;;4960839;28;20023;-71
2022/04/30 09:29:49;;;;;;;4.88;3.08;;;15.90;91.10;;;;;;4955594;28;20049;-71
2022/04/30 09:32:35;;;;;;;4.97;2.53;;;15.60;91.60;;;;;;4958784;28;20033;-71
2022/04/30 09:37:52;;;;;;;3.42;3.13;;;15.90;92.00;;;;;;4958065;28;20061;-71
2022/04/30 09:40:23;;;;;;;4.80;3.55;;;16.40;91.90;;;;;;4964342;28;20084;-71
2022/04/30 09:42:49;;;;;;;7.22;3.92;;;16.70;91.60;;;;;;4959497;28;20073;-72
2022/04/30 09:45:35;;;;;;;19.80;4.43;;;16.70;92.00;;;;;;4960335;28;20113;-70
2022/04/30 09:48:02;;;;;;;5.38;3.40;;;16.80;93.20;;;;;;4961903;28;20029;-71
2022/04/30 09:56:09;;;;;;;5.20;3.10;;;16.80;92.70;;;;;;4959578;28;20070;-70
2022/04/30 09:58:39;;;;;;;5.82;3.28;;;16.50;93.50;;;;;;4959247;28;20505;-72
2022/04/30 10:01:07;;;;;;;9.38;3.50;;;16.40;92.80;;;;;;4957375;28;20117;-71
2022/04/30 10:03:33;;;;;;;6.55;4.30;;;16.30;93.10;;;;;;4955209;28;20706;-71
2022/04/30 10:06:04;;;;;;;6.55;4.28;;;16.10;93.70;;;;;;4960018;28;20035;-71
2022/04/30 10:08:35;;;;;;;8.93;4.72;;;15.90;94.70;;;;;;4958035;28;20035;-71
2022/04/30 10:11:32;;;;;;;7.13;4.68;;;15.80;94.60;;;;;;4959452;28;20027;-71
2022/04/30 10:14:16;;;;;;;7.13;4.93;;;15.80;95.50;;;;;;4965645;28;20042;-71
2022/04/30 10:17:07;;;;;;;7.55;4.38;;;15.60;95.50;;;;;;4961664;28;20537;-70
2022/04/30 10:19:29;;;;;;;5.60;3.65;;;15.50;95.60;;;;;;4960815;28;20027;-70
2022/04/30 10:22:17;;;;;;;8.05;3.70;;;15.50;94.90;;;;;;4960916;28;20022;-70
2022/04/30 10:24:52;;;;;;;7.82;3.58;;;15.50;94.60;;;;;;4960252;28;20039;-70
2022/04/30 10:27:18;;;;;;;7.70;4.38;;;15.50;95.40;;;;;;4959603;28;20475;-71
2022/04/30 10:29:57;;;;;;;7.93;3.40;;;15.60;95.30;;;;;;4960008;28;20029;-70
2022/04/30 10:32:32;;;;;;;7.28;4.65;;;15.60;95.70;;;;;;4959686;28;20110;-70
2022/04/30 10:34:59;;;;;;;6.55;4.00;;;15.50;95.60;;;;;;4958543;28;20462;-70
2022/04/30 10:37:37;;;;;;;5.82;3.95;;;15.50;95.50;;;;;;4960194;28;20043;-71
2022/04/30 10:40:08;;;;;;;6.05;3.75;;;15.40;96.00;;;;;;4961341;28;20546;-72
2022/04/30 10:42:42;;;;;;;7.13;4.28;;;15.40;96.00;;;;;;4956303;28;20043;-71
2022/04/30 10:45:11;;;;;;;12.13;4.82;;;15.40;96.20;;;;;;4957805;28;20084;-71
2022/04/30 10:47:51;;;;;;;12.70;5.05;;;15.50;96.20;;;;;;4966769;28;20027;-71
2022/04/30 10:50:17;;;;;;;6.32;4.18;;;15.60;96.30;;;;;;4963313;28;20168;-71
2022/04/30 10:52:48;;;;;;;10.10;4.57;;;15.60;96.00;;;;;;4959340;28;20131;-71
2022/04/30 10:55:15;;;;;;;7.10;4.88;;;15.80;95.90;;;;;;4958752;28;20057;-70
2022/04/30 10:57:45;;;;;;;6.20;4.70;;;15.80;96.30;;;;;;4959041;28;20027;-71
2022/04/30 11:00:11;;;;;;;9.70;4.50;;;15.70;96.10;;;;;;4961638;28;20026;-70
2022/04/30 11:02:37;;;;;;;8.18;5.53;;;15.60;95.40;;;;;;4958658;28;20019;-71
2022/04/30 11:05:03;;;;;;;11.23;5.05;;;15.40;95.40;;;;;;4963285;28;20064;-71
2022/04/30 11:07:30;;;;;;;5.60;4.35;;;15.50;95.20;;;;;;4958714;28;20494;-70
2022/04/30 11:09:56;;;;;;;6.30;4.65;;;15.60;95.90;;;;;;4958666;28;20038;-70
2022/04/30 11:12:31;;;;;;;6.03;4.43;;;15.70;95.50;;;;;;4958561;28;20023;-71
2022/04/30 11:14:57;;;;;;;5.95;4.20;;;15.70;95.30;;;;;;4963201;28;20050;-71
2022/04/30 11:17:24;;;;;;;9.18;4.20;;;16.10;94.30;;;;;;4960182;28;20113;-71
2022/04/30 11:19:51;;;;;;;6.18;4.15;;;16.00;94.20;;;;;;4966101;28;20023;-70
2022/04/30 11:22:17;;;;;;;5.82;4.15;;;15.80;94.30;;;;;;4964013;28;20057;-71
2022/04/30 11:24:43;;;;;;;9.10;4.80;;;16.00;94.40;;;;;;4961699;28;20023;-71
2022/04/30 11:27:09;;;;;;;7.65;4.90;;;16.30;94.40;;;;;;4965530;28;20110;-71
2022/04/30 11:29:49;;;;;;;12.15;5.85;;;16.30;94.20;;;;;;4961568;28;20026;-71
2022/04/30 11:32:22;;;;;;;11.50;4.70;;;16.50;94.80;;;;;;4961989;28;20019;-71
2022/04/30 11:34:49;;;;;;;5.25;4.55;;;16.50;93.90;;;;;;4962372;28;20073;-72
2022/04/30 11:37:15;;;;;;;5.43;3.95;;;16.60;94.30;;;;;;4965840;28;20517;-71
2022/04/30 11:39:41;;;;;;;7.13;5.15;;;16.80;93.80;;;;;;4963186;28;20035;-71
2022/04/30 11:42:07;;;;;;;5.75;4.80;;;16.80;93.40;;;;;;4963373;28;20038;-70
2022/04/30 11:44:33;;;;;;;8.30;4.82;;;16.80;93.20;;;;;;4957619;28;20034;-70
2022/04/30 11:46:58;;;;;;;7.68;4.65;;;16.80;93.60;;;;;;4964273;28;20022;-71
2022/04/30 11:49:25;;;;;;;6.88;4.75;;;16.70;93.60;;;;;;4966150;28;20027;-71
2022/04/30 11:51:54;;;;;;;7.15;4.93;;;16.90;93.60;;;;;;4962660;28;20041;-71
2022/04/30 11:54:24;;;;;;;5.00;3.78;;;17.10;93.20;;;;;;4961753;28;20602;-71
2022/04/30 11:56:52;;;;;;;4.68;3.83;;;17.30;92.30;;;;;;4966904;28;20931;-72
2022/04/30 11:59:32;;;;;;;5.78;4.35;;;17.40;92.70;;;;;;4960396;28;20027;-71
2022/04/30 12:02:11;;;;;;;5.10;3.95;;;17.70;90.90;;;;;;4970576;28;20112;-71
2022/04/30 12:04:42;;;;;;;5.60;4.20;;;17.80;92.00;;;;;;4979338;28;20092;-72
2022/04/30 12:07:09;;;;;;;5.90;4.20;;;17.70;91.20;;;;;;4959944;28;20117;-71
2022/04/30 12:09:37;;;;;;;5.20;3.95;;;17.60;91.00;;;;;;4964759;28;20027;-71
2022/04/30 12:12:17;;;;;;;4.25;3.90;;;17.90;91.30;;;;;;4962982;28;20051;-71
2022/04/30 12:14:44;;;;;;;5.45;3.50;;;18.10;90.40;;;;;;4961611;28;20125;-72
2022/04/30 12:17:10;;;;;;;4.60;4.13;;;18.20;91.60;;;;;;4959546;28;20061;-71
2022/04/30 12:25:12;;;;;;;3.72;3.38;;;18.50;88.50;;;;;;4961571;28;20034;-72
2022/04/30 12:27:40;;;;;;;6.72;3.72;;;18.60;85.60;;;;;;4966239;28;20110;-71
2022/04/30 12:30:15;;;;;;;6.55;3.65;;;18.90;86.20;;;;;;4960690;28;20084;-72
2022/04/30 12:32:54;;;;;;;4.07;3.67;;;19.00;88.20;;;;;;4960745;28;20518;-71
2022/04/30 12:35:26;;;;;;;4.68;3.00;;;18.90;84.60;;;;;;4958572;28;20845;-71
2022/04/30 12:38:09;;;;;;;4.60;3.20;;;19.10;83.80;;;;;;4961144;28;20113;-72
2022/04/30 12:40:40;;;;;;;4.82;3.45;;;19.10;86.50;;;;;;4961807;28;20023;-71
2022/04/30 12:43:06;;;;;;;5.18;3.50;;;19.20;83.90;;;;;;4961897;28;20586;-71
2022/04/30 12:45:33;;;;;;;6.30;3.38;;;19.30;82.80;;;;;;4960695;28;20027;-71
2022/04/30 12:47:59;;;;;;;7.10;3.55;;;19.30;85.30;;;;;;4962574;28;20499;-71
2022/04/30 12:50:25;;;;;;;4.65;3.20;;;19.10;81.90;;;;;;4964449;28;20031;-71
2022/04/30 12:52:51;;;;;;;5.55;3.10;;;19.20;83.40;;;;;;4967065;28;20483;-71
2022/04/30 12:55:20;;;;;;;5.57;3.00;;;19.30;82.10;;;;;;4961086;28;20114;-71
2022/04/30 12:57:46;;;;;;;6.13;3.22;;;19.50;82.80;;;;;;4966503;28;20027;-71
2022/04/30 13:00:13;;;;;;;5.50;3.38;;;19.60;85.30;;;;;;4959760;28;20027;-71
2022/04/30 13:02:40;;;;;;;5.25;3.60;;;19.90;84.80;;;;;;4960697;28;20137;-71
2022/04/30 13:05:08;;;;;;;28.70;6.40;;;19.80;83.00;;;;;;4962513;28;20096;-71
2022/04/30 13:07:37;;;;;;;4.45;4.00;;;19.50;83.70;;;;;;4961768;28;20030;-71
2022/04/30 13:15:37;;;;;;;6.15;4.25;;;18.60;88.30;;;;;;4961852;28;20061;-71
2022/04/30 13:18:03;;;;;;;17.30;6.13;;;18.30;86.90;;;;;;4963064;28;20019;-71
2022/04/30 13:20:29;;;;;;;6.60;5.25;;;18.20;88.60;;;;;;4960883;28;20027;-70
2022/04/30 13:22:56;;;;;;;7.18;4.28;;;18.00;88.30;;;;;;4966235;28;20077;-71
2022/04/30 13:25:27;;;;;;;6.35;4.90;;;17.80;89.50;;;;;;4958728;28;20031;-70
2022/04/30 13:27:55;;;;;;;7.22;5.50;;;17.60;89.60;;;;;;4962165;28;20217;-70
2022/04/30 13:30:25;;;;;;;6.82;5.35;;;17.40;89.60;;;;;;4963122;28;20031;-71
2022/04/30 13:32:51;;;;;;;5.97;5.20;;;17.30;88.90;;;;;;4960669;28;20109;-72
2022/04/30 13:35:18;;;;;;;9.93;5.22;;;17.20;90.40;;;;;;4961973;28;20030;-72